sensor_id;sensor_type;location;lat;lon;timestamp;P1;durP1;ratioP1;P2;durP2;ratioP2
81903;SDS011;71370;-33.792;151.032;2023-11-19T00:01:06;2.50;;;0.40;;
81903;SDS011;71370;-33.792;151.032;2023-11-19T00:02:13;4.80;;;0.50;;
81903;SDS011;71370;-33.792;151.032;2023-11-19T00:03:21;4.60;;;0.30;;
81903;SDS011;71370;-33.792;151.032;2023-11-19T00:04:28;3.40;;;0.80;;
81903;SDS011;71370;-33.792;151.032;2023-11-19T00:05:35;5.10;;;1.20;;
81903;SDS011;71370;-33.792;151.032;2023-11-19T00:06:42;4.50;;;0.60;;
81903;SDS011;71370;-33.792;151.032;2023-11-19T00:07:49;3.50;;;0.50;;
81903;SDS011;71370;-33.792;151.032;2023-11-19T00:08:57;3.50;;;0.40;;
81903;SDS011;71370;-33.792;151.032;2023-11-19T00:10:05;4.00;;;0.60;;
81903;SDS011;71370;-33.792;151.032;2023-11-19T00:11:15;3.20;;;0.70;;
81903;SDS011;71370;-33.792;151.032;2023-11-19T00:12:22;4.20;;;0.90;;
81903;SDS011;71370;-33.792;151.032;2023-11-19T00:13:30;5.50;;;0.70;;
81903;SDS011;71370;-33.792;151.032;2023-11-19T00:14:37;2.40;;;0.40;;
81903;SDS011;71370;-33.792;151.032;2023-11-19T00:15:44;5.00;;;0.70;;
81903;SDS011;71370;-33.792;151.032;2023-11-19T00:16:53;3.10;;;0.50;;
81903;SDS011;71370;-33.792;151.032;2023-11-19T00:18:00;4.80;;;0.80;;
81903;SDS011;71370;-33.792;151.032;2023-11-19T00:19:10;4.50;;;0.40;;
81903;SDS011;71370;-33.792;151.032;2023-11-19T00:20:18;3.70;;;0.40;;
81903;SDS011;71370;-33.792;151.032;2023-11-19T00:21:27;2.50;;;0.60;;
81903;SDS011;71370;-33.792;151.032;2023-11-19T00:22:34;3.70;;;0.80;;
81903;SDS011;71370;-33.792;151.032;2023-11-19T00:23:41;4.80;;;0.70;;
81903;SDS011;71370;-33.792;151.032;2023-11-19T00:24:49;4.50;;;1.00;;
81903;SDS011;71370;-33.792;151.032;2023-11-19T00:25:56;2.80;;;0.50;;
81903;SDS011;71370;-33.792;151.032;2023-11-19T00:27:03;3.80;;;0.70;;
81903;SDS011;71370;-33.792;151.032;2023-11-19T00:28:10;3.40;;;0.90;;
81903;SDS011;71370;-33.792;151.032;2023-11-19T00:29:17;4.60;;;0.70;;
81903;SDS011;71370;-33.792;151.032;2023-11-19T00:30:25;3.80;;;0.40;;
81903;SDS011;71370;-33.792;151.032;2023-11-19T00:31:32;3.00;;;0.60;;
81903;SDS011;71370;-33.792;151.032;2023-11-19T00:32:40;3.00;;;0.50;;
81903;SDS011;71370;-33.792;151.032;2023-11-19T00:33:47;3.50;;;0.50;;
81903;SDS011;71370;-33.792;151.032;2023-11-19T00:34:55;3.90;;;0.60;;
81903;SDS011;71370;-33.792;151.032;2023-11-19T00:36:02;4.20;;;0.80;;
81903;SDS011;71370;-33.792;151.032;2023-11-19T00:37:09;2.90;;;0.70;;
81903;SDS011;71370;-33.792;151.032;2023-11-19T00:38:16;4.10;;;0.90;;
81903;SDS011;71370;-33.792;151.032;2023-11-19T00:39:23;3.70;;;1.20;;
81903;SDS011;71370;-33.792;151.032;2023-11-19T00:40:31;4.90;;;1.00;;
81903;SDS011;71370;-33.792;151.032;2023-11-19T00:41:38;4.40;;;0.90;;
81903;SDS011;71370;-33.792;151.032;2023-11-19T00:42:45;3.70;;;1.60;;
81903;SDS011;71370;-33.792;151.032;2023-11-19T00:43:53;4.10;;;0.80;;
81903;SDS011;71370;-33.792;151.032;2023-11-19T00:45:01;2.90;;;0.80;;
81903;SDS011;71370;-33.792;151.032;2023-11-19T00:46:08;3.30;;;0.50;;
81903;SDS011;71370;-33.792;151.032;2023-11-19T00:47:17;3.70;;;1.00;;
81903;SDS011;71370;-33.792;151.032;2023-11-19T00:48:27;2.80;;;0.80;;
81903;SDS011;71370;-33.792;151.032;2023-11-19T00:49:34;3.40;;;0.60;;
81903;SDS011;71370;-33.792;151.032;2023-11-19T00:50:41;3.30;;;0.80;;
81903;SDS011;71370;-33.792;151.032;2023-11-19T00:51:50;3.80;;;0.70;;
81903;SDS011;71370;-33.792;151.032;2023-11-19T00:52:57;4.20;;;0.70;;
81903;SDS011;71370;-33.792;151.032;2023-11-19T00:54:05;4.30;;;0.90;;
81903;SDS011;71370;-33.792;151.032;2023-11-19T00:55:12;3.90;;;0.70;;
81903;SDS011;71370;-33.792;151.032;2023-11-19T00:56:19;3.40;;;1.30;;
81903;SDS011;71370;-33.792;151.032;2023-11-19T00:57:26;3.40;;;0.80;;
81903;SDS011;71370;-33.792;151.032;2023-11-19T00:58:33;4.60;;;1.50;;
81903;SDS011;71370;-33.792;151.032;2023-11-19T00:59:43;4.70;;;0.70;;
81903;SDS011;71370;-33.792;151.032;2023-11-19T01:00:51;4.00;;;1.20;;
81903;SDS011;71370;-33.792;151.032;2023-11-19T01:01:58;4.30;;;1.40;;
81903;SDS011;71370;-33.792;151.032;2023-11-19T01:03:09;2.40;;;0.70;;
81903;SDS011;71370;-33.792;151.032;2023-11-19T01:04:17;4.00;;;0.90;;
81903;SDS011;71370;-33.792;151.032;2023-11-19T01:05:24;3.90;;;1.50;;
81903;SDS011;71370;-33.792;151.032;2023-11-19T01:06:32;3.50;;;0.60;;
81903;SDS011;71370;-33.792;151.032;2023-11-19T01:07:39;4.30;;;0.80;;
81903;SDS011;71370;-33.792;151.032;2023-11-19T01:08:46;4.50;;;0.90;;
81903;SDS011;71370;-33.792;151.032;2023-11-19T01:09:53;5.30;;;1.60;;
81903;SDS011;71370;-33.792;151.032;2023-11-19T01:11:00;3.90;;;0.70;;
81903;SDS011;71370;-33.792;151.032;2023-11-19T01:12:07;3.60;;;0.50;;
81903;SDS011;71370;-33.792;151.032;2023-11-19T01:13:15;3.30;;;1.30;;
81903;SDS011;71370;-33.792;151.032;2023-11-19T01:14:22;2.80;;;0.70;;
81903;SDS011;71370;-33.792;151.032;2023-11-19T01:15:31;3.80;;;0.80;;
81903;SDS011;71370;-33.792;151.032;2023-11-19T01:16:38;2.40;;;0.70;;
81903;SDS011;71370;-33.792;151.032;2023-11-19T01:17:45;4.20;;;1.10;;
81903;SDS011;71370;-33.792;151.032;2023-11-19T01:18:52;3.60;;;1.20;;
81903;SDS011;71370;-33.792;151.032;2023-11-19T01:20:00;3.20;;;1.00;;
81903;SDS011;71370;-33.792;151.032;2023-11-19T01:21:07;3.80;;;1.20;;
81903;SDS011;71370;-33.792;151.032;2023-11-19T01:22:14;3.90;;;1.00;;
81903;SDS011;71370;-33.792;151.032;2023-11-19T01:23:22;6.50;;;1.40;;
81903;SDS011;71370;-33.792;151.032;2023-11-19T01:24:29;3.40;;;0.60;;
81903;SDS011;71370;-33.792;151.032;2023-11-19T01:25:36;3.30;;;0.90;;
81903;SDS011;71370;-33.792;151.032;2023-11-19T01:26:43;2.90;;;0.60;;
81903;SDS011;71370;-33.792;151.032;2023-11-19T01:27:51;2.20;;;0.70;;
81903;SDS011;71370;-33.792;151.032;2023-11-19T01:28:58;7.50;;;0.80;;
81903;SDS011;71370;-33.792;151.032;2023-11-19T01:30:05;2.80;;;0.70;;
81903;SDS011;71370;-33.792;151.032;2023-11-19T01:31:15;4.50;;;1.50;;
81903;SDS011;71370;-33.792;151.032;2023-11-19T01:32:22;3.40;;;0.80;;
81903;SDS011;71370;-33.792;151.032;2023-11-19T01:33:29;3.20;;;0.80;;
81903;SDS011;71370;-33.792;151.032;2023-11-19T01:34:36;3.70;;;1.00;;
81903;SDS011;71370;-33.792;151.032;2023-11-19T01:35:43;5.00;;;1.20;;
81903;SDS011;71370;-33.792;151.032;2023-11-19T01:36:51;4.10;;;1.00;;
81903;SDS011;71370;-33.792;151.032;2023-11-19T01:37:58;3.60;;;0.80;;
81903;SDS011;71370;-33.792;151.032;2023-11-19T01:39:05;3.20;;;1.00;;
81903;SDS011;71370;-33.792;151.032;2023-11-19T01:40:13;5.00;;;0.60;;
81903;SDS011;71370;-33.792;151.032;2023-11-19T01:41:21;4.70;;;1.30;;
81903;SDS011;71370;-33.792;151.032;2023-11-19T01:42:28;2.80;;;0.80;;
81903;SDS011;71370;-33.792;151.032;2023-11-19T01:43:38;3.70;;;0.90;;
81903;SDS011;71370;-33.792;151.032;2023-11-19T01:44:58;2.90;;;0.80;;
81903;SDS011;71370;-33.792;151.032;2023-11-19T01:46:06;2.80;;;0.60;;
81903;SDS011;71370;-33.792;151.032;2023-11-19T01:47:15;3.80;;;0.80;;
81903;SDS011;71370;-33.792;151.032;2023-11-19T01:48:22;3.50;;;0.80;;
81903;SDS011;71370;-33.792;151.032;2023-11-19T01:49:30;4.60;;;0.70;;
81903;SDS011;71370;-33.792;151.032;2023-11-19T01:50:38;3.70;;;0.70;;
81903;SDS011;71370;-33.792;151.032;2023-11-19T01:51:46;3.10;;;0.70;;
81903;SDS011;71370;-33.792;151.032;2023-11-19T01:52:54;4.10;;;1.10;;
81903;SDS011;71370;-33.792;151.032;2023-11-19T01:54:06;4.00;;;1.30;;
81903;SDS011;71370;-33.792;151.032;2023-11-19T01:55:14;3.00;;;0.60;;
81903;SDS011;71370;-33.792;151.032;2023-11-19T01:56:21;4.00;;;1.10;;
81903;SDS011;71370;-33.792;151.032;2023-11-19T01:57:29;3.30;;;1.20;;
81903;SDS011;71370;-33.792;151.032;2023-11-19T01:58:36;3.90;;;1.50;;
81903;SDS011;71370;-33.792;151.032;2023-11-19T01:59:44;2.50;;;1.00;;
81903;SDS011;71370;-33.792;151.032;2023-11-19T02:00:52;2.80;;;0.80;;
81903;SDS011;71370;-33.792;151.032;2023-11-19T02:01:59;3.60;;;0.80;;
81903;SDS011;71370;-33.792;151.032;2023-11-19T02:03:07;3.10;;;0.80;;
81903;SDS011;71370;-33.792;151.032;2023-11-19T02:04:14;2.90;;;0.60;;
81903;SDS011;71370;-33.792;151.032;2023-11-19T02:05:21;2.20;;;0.60;;
81903;SDS011;71370;-33.792;151.032;2023-11-19T02:06:29;3.70;;;0.60;;
81903;SDS011;71370;-33.792;151.032;2023-11-19T02:07:39;3.00;;;0.50;;
81903;SDS011;71370;-33.792;151.032;2023-11-19T02:08:46;2.70;;;0.70;;
81903;SDS011;71370;-33.792;151.032;2023-11-19T02:09:53;2.10;;;0.60;;
81903;SDS011;71370;-33.792;151.032;2023-11-19T02:11:00;3.00;;;0.60;;
81903;SDS011;71370;-33.792;151.032;2023-11-19T02:12:07;4.30;;;0.70;;
81903;SDS011;71370;-33.792;151.032;2023-11-19T02:13:17;3.10;;;0.80;;
81903;SDS011;71370;-33.792;151.032;2023-11-19T02:14:25;2.60;;;0.50;;
81903;SDS011;71370;-33.792;151.032;2023-11-19T02:15:34;3.60;;;1.00;;
81903;SDS011;71370;-33.792;151.032;2023-11-19T02:16:41;3.10;;;0.80;;
81903;SDS011;71370;-33.792;151.032;2023-11-19T02:17:48;4.40;;;1.00;;
81903;SDS011;71370;-33.792;151.032;2023-11-19T02:18:55;4.50;;;1.40;;
81903;SDS011;71370;-33.792;151.032;2023-11-19T02:20:02;3.90;;;1.10;;
81903;SDS011;71370;-33.792;151.032;2023-11-19T02:21:14;4.20;;;1.00;;
81903;SDS011;71370;-33.792;151.032;2023-11-19T02:22:23;1.90;;;0.50;;
81903;SDS011;71370;-33.792;151.032;2023-11-19T02:23:30;3.30;;;0.60;;
81903;SDS011;71370;-33.792;151.032;2023-11-19T02:24:37;4.70;;;0.90;;
81903;SDS011;71370;-33.792;151.032;2023-11-19T02:29:11;2.90;;;0.50;;
81903;SDS011;71370;-33.792;151.032;2023-11-19T02:30:19;2.90;;;0.50;;
81903;SDS011;71370;-33.792;151.032;2023-11-19T02:31:26;4.10;;;1.20;;
81903;SDS011;71370;-33.792;151.032;2023-11-19T02:32:33;2.30;;;0.80;;
81903;SDS011;71370;-33.792;151.032;2023-11-19T02:33:41;3.50;;;1.00;;
81903;SDS011;71370;-33.792;151.032;2023-11-19T02:34:48;2.70;;;0.60;;
81903;SDS011;71370;-33.792;151.032;2023-11-19T02:35:56;3.60;;;0.70;;
81903;SDS011;71370;-33.792;151.032;2023-11-19T02:37:03;2.90;;;0.70;;
81903;SDS011;71370;-33.792;151.032;2023-11-19T02:38:10;3.80;;;1.00;;
81903;SDS011;71370;-33.792;151.032;2023-11-19T02:39:19;3.90;;;1.10;;
81903;SDS011;71370;-33.792;151.032;2023-11-19T02:40:27;3.30;;;0.90;;
81903;SDS011;71370;-33.792;151.032;2023-11-19T02:41:34;3.10;;;1.00;;
81903;SDS011;71370;-33.792;151.032;2023-11-19T02:42:41;3.40;;;1.10;;
81903;SDS011;71370;-33.792;151.032;2023-11-19T02:43:48;4.10;;;1.00;;
81903;SDS011;71370;-33.792;151.032;2023-11-19T02:44:55;2.80;;;0.90;;
81903;SDS011;71370;-33.792;151.032;2023-11-19T02:46:02;6.80;;;1.50;;
81903;SDS011;71370;-33.792;151.032;2023-11-19T02:47:13;3.80;;;0.70;;
81903;SDS011;71370;-33.792;151.032;2023-11-19T02:48:20;3.30;;;0.80;;
81903;SDS011;71370;-33.792;151.032;2023-11-19T02:49:27;3.90;;;1.00;;
81903;SDS011;71370;-33.792;151.032;2023-11-19T02:50:34;4.40;;;1.30;;
81903;SDS011;71370;-33.792;151.032;2023-11-19T02:51:42;2.90;;;0.70;;
81903;SDS011;71370;-33.792;151.032;2023-11-19T02:52:49;2.50;;;1.00;;
81903;SDS011;71370;-33.792;151.032;2023-11-19T02:53:57;3.40;;;0.90;;
81903;SDS011;71370;-33.792;151.032;2023-11-19T02:55:04;3.30;;;1.00;;
81903;SDS011;71370;-33.792;151.032;2023-11-19T02:56:15;3.60;;;0.90;;
81903;SDS011;71370;-33.792;151.032;2023-11-19T02:57:31;3.10;;;0.90;;
81903;SDS011;71370;-33.792;151.032;2023-11-19T02:58:39;4.70;;;0.80;;
81903;SDS011;71370;-33.792;151.032;2023-11-19T02:59:46;4.20;;;0.70;;
81903;SDS011;71370;-33.792;151.032;2023-11-19T03:00:53;4.10;;;0.90;;
81903;SDS011;71370;-33.792;151.032;2023-11-19T03:02:05;4.60;;;0.90;;
81903;SDS011;71370;-33.792;151.032;2023-11-19T03:03:13;5.60;;;1.60;;
81903;SDS011;71370;-33.792;151.032;2023-11-19T03:04:32;7.80;;;2.40;;
81903;SDS011;71370;-33.792;151.032;2023-11-19T03:05:40;3.70;;;0.90;;
81903;SDS011;71370;-33.792;151.032;2023-11-19T03:06:47;5.90;;;1.50;;
81903;SDS011;71370;-33.792;151.032;2023-11-19T03:07:54;2.40;;;0.80;;
81903;SDS011;71370;-33.792;151.032;2023-11-19T03:09:01;4.50;;;1.60;;
81903;SDS011;71370;-33.792;151.032;2023-11-19T03:10:12;3.50;;;1.00;;
81903;SDS011;71370;-33.792;151.032;2023-11-19T03:11:20;5.40;;;1.30;;
81903;SDS011;71370;-33.792;151.032;2023-11-19T03:12:27;5.40;;;2.50;;
81903;SDS011;71370;-33.792;151.032;2023-11-19T03:13:34;4.90;;;1.40;;
81903;SDS011;71370;-33.792;151.032;2023-11-19T03:14:41;5.50;;;2.60;;
81903;SDS011;71370;-33.792;151.032;2023-11-19T03:15:49;6.40;;;1.10;;
81903;SDS011;71370;-33.792;151.032;2023-11-19T03:16:57;5.30;;;1.00;;
81903;SDS011;71370;-33.792;151.032;2023-11-19T03:18:04;3.40;;;1.00;;
81903;SDS011;71370;-33.792;151.032;2023-11-19T03:19:11;5.00;;;1.20;;
81903;SDS011;71370;-33.792;151.032;2023-11-19T03:20:18;3.80;;;1.10;;
81903;SDS011;71370;-33.792;151.032;2023-11-19T03:21:29;5.60;;;1.00;;
81903;SDS011;71370;-33.792;151.032;2023-11-19T03:22:37;6.60;;;0.80;;
81903;SDS011;71370;-33.792;151.032;2023-11-19T03:23:44;5.50;;;0.90;;
81903;SDS011;71370;-33.792;151.032;2023-11-19T03:24:51;8.10;;;1.20;;
81903;SDS011;71370;-33.792;151.032;2023-11-19T03:25:58;4.00;;;1.40;;
81903;SDS011;71370;-33.792;151.032;2023-11-19T03:27:09;3.70;;;0.90;;
81903;SDS011;71370;-33.792;151.032;2023-11-19T03:28:16;5.10;;;0.80;;
81903;SDS011;71370;-33.792;151.032;2023-11-19T03:29:24;5.90;;;1.10;;
81903;SDS011;71370;-33.792;151.032;2023-11-19T03:30:31;4.60;;;1.00;;
81903;SDS011;71370;-33.792;151.032;2023-11-19T03:31:41;5.10;;;1.10;;
81903;SDS011;71370;-33.792;151.032;2023-11-19T03:32:50;4.10;;;1.00;;
81903;SDS011;71370;-33.792;151.032;2023-11-19T03:33:57;4.50;;;1.10;;
81903;SDS011;71370;-33.792;151.032;2023-11-19T03:35:04;5.60;;;1.90;;
81903;SDS011;71370;-33.792;151.032;2023-11-19T03:36:17;6.20;;;1.60;;
81903;SDS011;71370;-33.792;151.032;2023-11-19T03:37:24;7.90;;;3.00;;
81903;SDS011;71370;-33.792;151.032;2023-11-19T03:38:32;9.30;;;5.00;;
81903;SDS011;71370;-33.792;151.032;2023-11-19T03:39:39;9.60;;;4.00;;
81903;SDS011;71370;-33.792;151.032;2023-11-19T03:40:46;9.80;;;4.90;;
81903;SDS011;71370;-33.792;151.032;2023-11-19T03:41:53;6.60;;;2.90;;
81903;SDS011;71370;-33.792;151.032;2023-11-19T03:43:00;4.50;;;2.30;;
81903;SDS011;71370;-33.792;151.032;2023-11-19T03:44:09;4.80;;;1.70;;
81903;SDS011;71370;-33.792;151.032;2023-11-19T03:45:16;5.70;;;1.20;;
81903;SDS011;71370;-33.792;151.032;2023-11-19T03:46:23;5.30;;;1.20;;
81903;SDS011;71370;-33.792;151.032;2023-11-19T03:47:31;5.40;;;1.30;;
81903;SDS011;71370;-33.792;151.032;2023-11-19T03:48:38;4.50;;;1.00;;
81903;SDS011;71370;-33.792;151.032;2023-11-19T03:49:51;4.60;;;1.80;;
81903;SDS011;71370;-33.792;151.032;2023-11-19T03:50:58;4.60;;;1.10;;
81903;SDS011;71370;-33.792;151.032;2023-11-19T03:52:05;3.40;;;1.40;;
81903;SDS011;71370;-33.792;151.032;2023-11-19T03:53:12;3.90;;;1.30;;
81903;SDS011;71370;-33.792;151.032;2023-11-19T03:54:20;4.40;;;1.20;;
81903;SDS011;71370;-33.792;151.032;2023-11-19T03:55:28;3.50;;;0.80;;
81903;SDS011;71370;-33.792;151.032;2023-11-19T03:56:35;4.70;;;1.00;;
81903;SDS011;71370;-33.792;151.032;2023-11-19T03:57:43;4.70;;;1.00;;
81903;SDS011;71370;-33.792;151.032;2023-11-19T03:58:50;5.60;;;0.80;;
81903;SDS011;71370;-33.792;151.032;2023-11-19T03:59:57;3.20;;;1.10;;
81903;SDS011;71370;-33.792;151.032;2023-11-19T04:01:05;4.80;;;0.90;;
81903;SDS011;71370;-33.792;151.032;2023-11-19T04:02:12;4.50;;;1.20;;
81903;SDS011;71370;-33.792;151.032;2023-11-19T04:03:19;5.60;;;1.30;;
81903;SDS011;71370;-33.792;151.032;2023-11-19T04:04:26;4.40;;;1.00;;
81903;SDS011;71370;-33.792;151.032;2023-11-19T04:05:35;3.70;;;1.10;;
81903;SDS011;71370;-33.792;151.032;2023-11-19T04:06:42;4.10;;;0.90;;
81903;SDS011;71370;-33.792;151.032;2023-11-19T04:07:49;5.80;;;1.20;;
81903;SDS011;71370;-33.792;151.032;2023-11-19T04:08:55;3.90;;;1.60;;
81903;SDS011;71370;-33.792;151.032;2023-11-19T04:10:02;4.90;;;0.80;;
81903;SDS011;71370;-33.792;151.032;2023-11-19T04:11:10;3.60;;;1.10;;
81903;SDS011;71370;-33.792;151.032;2023-11-19T04:12:17;3.70;;;0.60;;
81903;SDS011;71370;-33.792;151.032;2023-11-19T04:13:25;4.20;;;1.20;;
81903;SDS011;71370;-33.792;151.032;2023-11-19T04:14:32;3.90;;;0.80;;
81903;SDS011;71370;-33.792;151.032;2023-11-19T04:15:39;9.00;;;1.40;;
81903;SDS011;71370;-33.792;151.032;2023-11-19T04:16:46;4.50;;;0.80;;
81903;SDS011;71370;-33.792;151.032;2023-11-19T04:17:53;4.70;;;0.80;;
81903;SDS011;71370;-33.792;151.032;2023-11-19T04:19:00;4.70;;;0.90;;
81903;SDS011;71370;-33.792;151.032;2023-11-19T04:20:07;5.20;;;1.10;;
81903;SDS011;71370;-33.792;151.032;2023-11-19T04:21:18;4.70;;;1.00;;
81903;SDS011;71370;-33.792;151.032;2023-11-19T04:22:25;4.30;;;0.80;;
81903;SDS011;71370;-33.792;151.032;2023-11-19T04:23:32;3.60;;;0.70;;
81903;SDS011;71370;-33.792;151.032;2023-11-19T04:24:39;5.00;;;1.20;;
81903;SDS011;71370;-33.792;151.032;2023-11-19T04:25:46;5.20;;;1.80;;
81903;SDS011;71370;-33.792;151.032;2023-11-19T04:26:53;3.90;;;1.50;;
81903;SDS011;71370;-33.792;151.032;2023-11-19T04:28:00;5.10;;;1.30;;
81903;SDS011;71370;-33.792;151.032;2023-11-19T04:29:09;5.40;;;1.70;;
81903;SDS011;71370;-33.792;151.032;2023-11-19T04:30:17;3.90;;;0.60;;
81903;SDS011;71370;-33.792;151.032;2023-11-19T04:31:28;3.30;;;0.50;;
81903;SDS011;71370;-33.792;151.032;2023-11-19T04:32:38;4.00;;;0.90;;
81903;SDS011;71370;-33.792;151.032;2023-11-19T04:33:45;3.70;;;0.90;;
81903;SDS011;71370;-33.792;151.032;2023-11-19T04:34:52;4.20;;;0.80;;
81903;SDS011;71370;-33.792;151.032;2023-11-19T04:35:59;6.10;;;0.90;;
81903;SDS011;71370;-33.792;151.032;2023-11-19T04:37:06;4.20;;;0.60;;
81903;SDS011;71370;-33.792;151.032;2023-11-19T04:38:13;4.70;;;1.10;;
81903;SDS011;71370;-33.792;151.032;2023-11-19T04:39:20;5.30;;;1.00;;
81903;SDS011;71370;-33.792;151.032;2023-11-19T04:40:28;3.80;;;0.90;;
81903;SDS011;71370;-33.792;151.032;2023-11-19T04:41:35;3.20;;;0.70;;
81903;SDS011;71370;-33.792;151.032;2023-11-19T04:42:42;4.50;;;0.80;;
81903;SDS011;71370;-33.792;151.032;2023-11-19T04:43:49;5.00;;;0.80;;
81903;SDS011;71370;-33.792;151.032;2023-11-19T04:44:56;5.10;;;0.70;;
81903;SDS011;71370;-33.792;151.032;2023-11-19T04:46:06;4.00;;;0.70;;
81903;SDS011;71370;-33.792;151.032;2023-11-19T04:47:13;4.20;;;1.00;;
81903;SDS011;71370;-33.792;151.032;2023-11-19T04:48:20;5.50;;;1.00;;
81903;SDS011;71370;-33.792;151.032;2023-11-19T04:49:27;4.60;;;0.70;;
81903;SDS011;71370;-33.792;151.032;2023-11-19T04:50:36;6.30;;;1.30;;
81903;SDS011;71370;-33.792;151.032;2023-11-19T04:51:44;3.40;;;0.50;;
81903;SDS011;71370;-33.792;151.032;2023-11-19T04:52:55;4.50;;;1.10;;
81903;SDS011;71370;-33.792;151.032;2023-11-19T04:54:02;6.20;;;1.40;;
81903;SDS011;71370;-33.792;151.032;2023-11-19T04:55:09;5.60;;;1.00;;
81903;SDS011;71370;-33.792;151.032;2023-11-19T04:56:20;4.50;;;0.80;;
81903;SDS011;71370;-33.792;151.032;2023-11-19T04:57:28;4.70;;;0.80;;
81903;SDS011;71370;-33.792;151.032;2023-11-19T04:58:37;5.00;;;1.00;;
81903;SDS011;71370;-33.792;151.032;2023-11-19T04:59:45;6.10;;;1.90;;
81903;SDS011;71370;-33.792;151.032;2023-11-19T05:00:52;3.20;;;0.70;;
81903;SDS011;71370;-33.792;151.032;2023-11-19T05:01:59;4.60;;;0.90;;
81903;SDS011;71370;-33.792;151.032;2023-11-19T05:03:06;4.40;;;1.10;;
81903;SDS011;71370;-33.792;151.032;2023-11-19T05:04:14;4.60;;;0.70;;
81903;SDS011;71370;-33.792;151.032;2023-11-19T05:05:21;3.30;;;0.80;;
81903;SDS011;71370;-33.792;151.032;2023-11-19T05:06:28;6.70;;;1.10;;
81903;SDS011;71370;-33.792;151.032;2023-11-19T05:07:36;3.30;;;1.20;;
81903;SDS011;71370;-33.792;151.032;2023-11-19T05:08:44;4.30;;;0.90;;
81903;SDS011;71370;-33.792;151.032;2023-11-19T05:09:52;3.90;;;0.80;;
81903;SDS011;71370;-33.792;151.032;2023-11-19T05:10:59;4.00;;;0.90;;
81903;SDS011;71370;-33.792;151.032;2023-11-19T05:12:06;5.30;;;0.90;;
81903;SDS011;71370;-33.792;151.032;2023-11-19T05:13:17;5.00;;;1.40;;
81903;SDS011;71370;-33.792;151.032;2023-11-19T05:14:26;5.70;;;1.30;;
81903;SDS011;71370;-33.792;151.032;2023-11-19T05:15:33;6.80;;;1.40;;
81903;SDS011;71370;-33.792;151.032;2023-11-19T05:16:40;4.80;;;1.00;;
81903;SDS011;71370;-33.792;151.032;2023-11-19T05:17:48;6.30;;;1.40;;
81903;SDS011;71370;-33.792;151.032;2023-11-19T05:18:55;4.60;;;1.60;;
81903;SDS011;71370;-33.792;151.032;2023-11-19T05:20:02;4.00;;;1.00;;
81903;SDS011;71370;-33.792;151.032;2023-11-19T05:21:10;4.40;;;1.30;;
81903;SDS011;71370;-33.792;151.032;2023-11-19T05:22:18;5.20;;;1.30;;
81903;SDS011;71370;-33.792;151.032;2023-11-19T05:23:26;5.10;;;1.50;;
81903;SDS011;71370;-33.792;151.032;2023-11-19T05:24:33;5.20;;;1.30;;
81903;SDS011;71370;-33.792;151.032;2023-11-19T05:25:41;4.70;;;1.40;;
81903;SDS011;71370;-33.792;151.032;2023-11-19T05:26:48;4.30;;;0.90;;
81903;SDS011;71370;-33.792;151.032;2023-11-19T05:27:56;3.60;;;1.00;;
81903;SDS011;71370;-33.792;151.032;2023-11-19T05:29:03;4.60;;;2.00;;
81903;SDS011;71370;-33.792;151.032;2023-11-19T05:30:11;4.70;;;1.00;;
81903;SDS011;71370;-33.792;151.032;2023-11-19T05:31:18;2.60;;;0.50;;
81903;SDS011;71370;-33.792;151.032;2023-11-19T05:32:25;5.00;;;1.20;;
81903;SDS011;71370;-33.792;151.032;2023-11-19T05:33:32;4.00;;;0.70;;
81903;SDS011;71370;-33.792;151.032;2023-11-19T05:34:40;4.20;;;1.10;;
81903;SDS011;71370;-33.792;151.032;2023-11-19T05:35:48;6.10;;;1.10;;
81903;SDS011;71370;-33.792;151.032;2023-11-19T05:36:55;4.60;;;1.00;;
81903;SDS011;71370;-33.792;151.032;2023-11-19T05:38:03;5.30;;;1.00;;
81903;SDS011;71370;-33.792;151.032;2023-11-19T05:39:11;4.90;;;0.90;;
81903;SDS011;71370;-33.792;151.032;2023-11-19T05:40:18;4.60;;;1.20;;
81903;SDS011;71370;-33.792;151.032;2023-11-19T05:41:26;4.90;;;1.20;;
81903;SDS011;71370;-33.792;151.032;2023-11-19T05:42:33;4.60;;;0.80;;
81903;SDS011;71370;-33.792;151.032;2023-11-19T05:43:40;4.40;;;1.40;;
81903;SDS011;71370;-33.792;151.032;2023-11-19T05:44:48;4.00;;;1.30;;
81903;SDS011;71370;-33.792;151.032;2023-11-19T05:45:55;5.00;;;0.80;;
81903;SDS011;71370;-33.792;151.032;2023-11-19T05:47:02;5.60;;;1.30;;
81903;SDS011;71370;-33.792;151.032;2023-11-19T05:48:09;4.50;;;1.20;;
81903;SDS011;71370;-33.792;151.032;2023-11-19T05:49:16;4.10;;;0.70;;
81903;SDS011;71370;-33.792;151.032;2023-11-19T05:50:24;3.80;;;1.20;;
81903;SDS011;71370;-33.792;151.032;2023-11-19T05:51:31;5.80;;;1.00;;
81903;SDS011;71370;-33.792;151.032;2023-11-19T05:52:37;5.60;;;1.20;;
81903;SDS011;71370;-33.792;151.032;2023-11-19T05:53:45;3.40;;;0.60;;
81903;SDS011;71370;-33.792;151.032;2023-11-19T05:54:52;6.10;;;1.20;;
81903;SDS011;71370;-33.792;151.032;2023-11-19T05:55:59;3.90;;;1.00;;
81903;SDS011;71370;-33.792;151.032;2023-11-19T05:57:09;3.40;;;1.20;;
81903;SDS011;71370;-33.792;151.032;2023-11-19T05:58:17;4.60;;;0.70;;
81903;SDS011;71370;-33.792;151.032;2023-11-19T05:59:25;5.60;;;1.10;;
81903;SDS011;71370;-33.792;151.032;2023-11-19T06:00:32;4.60;;;0.90;;
81903;SDS011;71370;-33.792;151.032;2023-11-19T06:01:41;4.20;;;1.00;;
81903;SDS011;71370;-33.792;151.032;2023-11-19T06:02:48;8.60;;;1.30;;
81903;SDS011;71370;-33.792;151.032;2023-11-19T06:03:55;3.80;;;1.10;;
81903;SDS011;71370;-33.792;151.032;2023-11-19T06:05:02;5.20;;;1.40;;
81903;SDS011;71370;-33.792;151.032;2023-11-19T06:06:11;3.30;;;1.10;;
81903;SDS011;71370;-33.792;151.032;2023-11-19T06:07:18;3.70;;;0.90;;
81903;SDS011;71370;-33.792;151.032;2023-11-19T06:08:25;6.90;;;0.90;;
81903;SDS011;71370;-33.792;151.032;2023-11-19T06:09:32;5.10;;;1.20;;
81903;SDS011;71370;-33.792;151.032;2023-11-19T06:10:42;4.20;;;0.90;;
81903;SDS011;71370;-33.792;151.032;2023-11-19T06:11:52;3.00;;;0.70;;
81903;SDS011;71370;-33.792;151.032;2023-11-19T06:13:00;3.90;;;0.80;;
81903;SDS011;71370;-33.792;151.032;2023-11-19T06:14:10;5.80;;;0.80;;
81903;SDS011;71370;-33.792;151.032;2023-11-19T06:15:17;4.40;;;1.60;;
81903;SDS011;71370;-33.792;151.032;2023-11-19T06:16:24;5.30;;;1.00;;
81903;SDS011;71370;-33.792;151.032;2023-11-19T06:17:32;4.60;;;0.70;;
81903;SDS011;71370;-33.792;151.032;2023-11-19T06:18:39;5.10;;;1.40;;
81903;SDS011;71370;-33.792;151.032;2023-11-19T06:19:47;4.80;;;1.40;;
81903;SDS011;71370;-33.792;151.032;2023-11-19T06:20:54;4.10;;;1.60;;
81903;SDS011;71370;-33.792;151.032;2023-11-19T06:22:01;3.60;;;0.80;;
81903;SDS011;71370;-33.792;151.032;2023-11-19T06:23:08;5.80;;;1.30;;
81903;SDS011;71370;-33.792;151.032;2023-11-19T06:24:15;4.40;;;1.30;;
81903;SDS011;71370;-33.792;151.032;2023-11-19T06:25:22;4.50;;;1.30;;
81903;SDS011;71370;-33.792;151.032;2023-11-19T06:26:30;4.40;;;1.10;;
81903;SDS011;71370;-33.792;151.032;2023-11-19T06:27:37;7.70;;;1.30;;
81903;SDS011;71370;-33.792;151.032;2023-11-19T06:28:44;4.50;;;0.80;;
81903;SDS011;71370;-33.792;151.032;2023-11-19T06:29:52;6.00;;;0.90;;
81903;SDS011;71370;-33.792;151.032;2023-11-19T06:30:59;4.50;;;1.20;;
81903;SDS011;71370;-33.792;151.032;2023-11-19T06:32:06;3.70;;;1.10;;
81903;SDS011;71370;-33.792;151.032;2023-11-19T06:33:13;4.90;;;1.30;;
81903;SDS011;71370;-33.792;151.032;2023-11-19T06:34:20;3.20;;;0.90;;